sensor_id;sensor_type;location;lat;lon;timestamp;P1;durP1;ratioP1;P2;durP2;ratioP2
76708;SDS011;74360;44.410;0.216;2024-02-23T00:03:22;15.87;;;3.10;;
76708;SDS011;74360;44.410;0.216;2024-02-23T00:08:55;17.60;;;4.23;;
76708;SDS011;74360;44.410;0.216;2024-02-23T00:14:28;19.37;;;4.27;;
76708;SDS011;74360;44.410;0.216;2024-02-23T00:20:00;15.83;;;2.87;;
76708;SDS011;74360;44.410;0.216;2024-02-23T00:25:34;16.30;;;4.30;;
76708;SDS011;74360;44.410;0.216;2024-02-23T00:31:06;15.83;;;3.23;;
76708;SDS011;74360;44.410;0.216;2024-02-23T00:36:39;20.47;;;3.50;;
76708;SDS011;74360;44.410;0.216;2024-02-23T00:42:11;16.37;;;3.03;;
76708;SDS011;74360;44.410;0.216;2024-02-23T00:47:44;23.50;;;4.43;;
76708;SDS011;74360;44.410;0.216;2024-02-23T00:53:18;16.90;;;3.23;;
76708;SDS011;74360;44.410;0.216;2024-02-23T00:58:49;20.77;;;3.30;;
76708;SDS011;74360;44.410;0.216;2024-02-23T01:09:56;19.40;;;3.40;;
76708;SDS011;74360;44.410;0.216;2024-02-23T01:15:30;21.97;;;4.57;;
76708;SDS011;74360;44.410;0.216;2024-02-23T01:21:02;17.10;;;3.03;;
76708;SDS011;74360;44.410;0.216;2024-02-23T01:26:34;14.27;;;2.80;;
76708;SDS011;74360;44.410;0.216;2024-02-23T01:32:06;20.93;;;3.37;;
76708;SDS011;74360;44.410;0.216;2024-02-23T01:37:39;15.50;;;3.33;;
76708;SDS011;74360;44.410;0.216;2024-02-23T01:43:10;10.07;;;2.73;;
76708;SDS011;74360;44.410;0.216;2024-02-23T01:48:43;16.73;;;3.97;;
76708;SDS011;74360;44.410;0.216;2024-02-23T01:54:16;16.67;;;2.80;;
76708;SDS011;74360;44.410;0.216;2024-02-23T01:59:48;10.73;;;2.27;;
76708;SDS011;74360;44.410;0.216;2024-02-23T02:05:21;14.17;;;2.03;;
76708;SDS011;74360;44.410;0.216;2024-02-23T02:10:54;13.67;;;2.27;;
76708;SDS011;74360;44.410;0.216;2024-02-23T02:16:27;12.33;;;2.13;;
76708;SDS011;74360;44.410;0.216;2024-02-23T02:22:00;6.63;;;1.87;;
76708;SDS011;74360;44.410;0.216;2024-02-23T02:27:32;14.00;;;2.73;;
76708;SDS011;74360;44.410;0.216;2024-02-23T02:38:37;12.27;;;2.50;;
76708;SDS011;74360;44.410;0.216;2024-02-23T02:44:10;12.27;;;3.10;;
76708;SDS011;74360;44.410;0.216;2024-02-23T02:55:16;7.53;;;2.10;;
76708;SDS011;74360;44.410;0.216;2024-02-23T03:00:49;9.00;;;2.10;;
76708;SDS011;74360;44.410;0.216;2024-02-23T03:06:20;11.37;;;2.40;;
76708;SDS011;74360;44.410;0.216;2024-02-23T03:11:54;6.17;;;1.40;;
76708;SDS011;74360;44.410;0.216;2024-02-23T03:17:27;8.33;;;1.40;;
76708;SDS011;74360;44.410;0.216;2024-02-23T03:23:01;7.93;;;1.30;;
76708;SDS011;74360;44.410;0.216;2024-02-23T03:28:32;8.50;;;1.03;;
76708;SDS011;74360;44.410;0.216;2024-02-23T03:34:05;2.70;;;1.00;;
76708;SDS011;74360;44.410;0.216;2024-02-23T03:39:38;0.97;;;0.60;;
76708;SDS011;74360;44.410;0.216;2024-02-23T03:45:10;5.93;;;1.20;;
76708;SDS011;74360;44.410;0.216;2024-02-23T03:50:42;3.73;;;1.00;;
76708;SDS011;74360;44.410;0.216;2024-02-23T03:56:14;7.17;;;1.30;;
76708;SDS011;74360;44.410;0.216;2024-02-23T04:01:48;7.17;;;0.90;;
76708;SDS011;74360;44.410;0.216;2024-02-23T04:07:20;4.23;;;0.90;;
76708;SDS011;74360;44.410;0.216;2024-02-23T04:12:52;4.93;;;1.00;;
76708;SDS011;74360;44.410;0.216;2024-02-23T04:18:23;3.83;;;0.90;;
76708;SDS011;74360;44.410;0.216;2024-02-23T04:23:57;4.60;;;1.83;;
76708;SDS011;74360;44.410;0.216;2024-02-23T04:29:30;5.53;;;0.80;;
76708;SDS011;74360;44.410;0.216;2024-02-23T04:40:37;2.20;;;0.67;;
76708;SDS011;74360;44.410;0.216;2024-02-23T04:46:08;4.10;;;0.70;;
76708;SDS011;74360;44.410;0.216;2024-02-23T04:57:14;4.13;;;0.90;;
76708;SDS011;74360;44.410;0.216;2024-02-23T05:02:47;4.13;;;1.17;;
76708;SDS011;74360;44.410;0.216;2024-02-23T05:08:19;2.43;;;0.73;;
76708;SDS011;74360;44.410;0.216;2024-02-23T05:13:52;3.50;;;0.90;;
76708;SDS011;74360;44.410;0.216;2024-02-23T05:19:25;6.90;;;1.17;;
76708;SDS011;74360;44.410;0.216;2024-02-23T05:24:58;1.80;;;0.83;;
76708;SDS011;74360;44.410;0.216;2024-02-23T05:30:31;5.23;;;1.00;;
76708;SDS011;74360;44.410;0.216;2024-02-23T05:36:03;5.47;;;1.20;;
76708;SDS011;74360;44.410;0.216;2024-02-23T05:41:34;5.93;;;1.10;;
76708;SDS011;74360;44.410;0.216;2024-02-23T05:47:07;8.90;;;1.33;;
76708;SDS011;74360;44.410;0.216;2024-02-23T05:52:40;11.27;;;1.97;;
76708;SDS011;74360;44.410;0.216;2024-02-23T05:58:14;9.60;;;1.80;;
76708;SDS011;74360;44.410;0.216;2024-02-23T06:03:45;7.43;;;1.57;;
76708;SDS011;74360;44.410;0.216;2024-02-23T06:09:18;6.33;;;2.10;;
76708;SDS011;74360;44.410;0.216;2024-02-23T06:14:50;4.50;;;1.10;;
76708;SDS011;74360;44.410;0.216;2024-02-23T06:25:56;9.37;;;1.73;;
76708;SDS011;74360;44.410;0.216;2024-02-23T06:31:29;3.70;;;1.20;;
76708;SDS011;74360;44.410;0.216;2024-02-23T06:37:01;3.03;;;0.93;;
76708;SDS011;74360;44.410;0.216;2024-02-23T06:42:33;6.53;;;1.00;;
76708;SDS011;74360;44.410;0.216;2024-02-23T06:59:09;3.03;;;1.00;;
76708;SDS011;74360;44.410;0.216;2024-02-23T07:04:41;3.27;;;1.07;;
76708;SDS011;74360;44.410;0.216;2024-02-23T07:10:14;2.97;;;1.10;;
76708;SDS011;74360;44.410;0.216;2024-02-23T07:15:48;6.83;;;2.10;;
76708;SDS011;74360;44.410;0.216;2024-02-23T07:21:20;3.97;;;1.13;;
76708;SDS011;74360;44.410;0.216;2024-02-23T07:26:53;6.93;;;1.53;;
76708;SDS011;74360;44.410;0.216;2024-02-23T07:32:27;8.07;;;1.37;;
76708;SDS011;74360;44.410;0.216;2024-02-23T07:38:00;4.90;;;1.00;;
76708;SDS011;74360;44.410;0.216;2024-02-23T07:43:32;5.80;;;1.40;;
76708;SDS011;74360;44.410;0.216;2024-02-23T07:49:06;5.50;;;1.00;;
76708;SDS011;74360;44.410;0.216;2024-02-23T07:54:37;5.10;;;1.13;;
76708;SDS011;74360;44.410;0.216;2024-02-23T08:00:10;6.47;;;1.20;;
76708;SDS011;74360;44.410;0.216;2024-02-23T08:05:43;4.90;;;1.43;;
76708;SDS011;74360;44.410;0.216;2024-02-23T08:11:16;6.20;;;1.90;;
76708;SDS011;74360;44.410;0.216;2024-02-23T08:16:48;4.70;;;1.30;;
76708;SDS011;74360;44.410;0.216;2024-02-23T08:22:20;7.27;;;1.43;;
76708;SDS011;74360;44.410;0.216;2024-02-23T08:33:26;5.43;;;1.40;;
76708;SDS011;74360;44.410;0.216;2024-02-23T08:38:58;5.53;;;1.43;;
76708;SDS011;74360;44.410;0.216;2024-02-23T08:44:32;4.67;;;0.90;;
76708;SDS011;74360;44.410;0.216;2024-02-23T08:50:05;9.20;;;2.03;;
76708;SDS011;74360;44.410;0.216;2024-02-23T08:55:37;5.60;;;1.40;;
76708;SDS011;74360;44.410;0.216;2024-02-23T09:06:43;3.10;;;0.77;;
76708;SDS011;74360;44.410;0.216;2024-02-23T09:12:16;6.73;;;1.50;;
76708;SDS011;74360;44.410;0.216;2024-02-23T09:17:48;7.13;;;1.33;;
76708;SDS011;74360;44.410;0.216;2024-02-23T09:23:21;6.97;;;1.60;;
76708;SDS011;74360;44.410;0.216;2024-02-23T09:34:26;5.63;;;1.20;;
76708;SDS011;74360;44.410;0.216;2024-02-23T09:39:59;5.87;;;1.37;;
76708;SDS011;74360;44.410;0.216;2024-02-23T09:45:31;6.67;;;1.70;;
76708;SDS011;74360;44.410;0.216;2024-02-23T09:51:03;5.53;;;1.50;;
76708;SDS011;74360;44.410;0.216;2024-02-23T10:02:09;3.70;;;0.80;;
76708;SDS011;74360;44.410;0.216;2024-02-23T10:07:42;3.50;;;0.70;;
76708;SDS011;74360;44.410;0.216;2024-02-23T10:13:17;2.70;;;0.73;;
76708;SDS011;74360;44.410;0.216;2024-02-23T10:18:47;2.40;;;0.77;;
76708;SDS011;74360;44.410;0.216;2024-02-23T10:24:20;6.33;;;1.30;;
76708;SDS011;74360;44.410;0.216;2024-02-23T10:29:54;3.67;;;0.80;;
76708;SDS011;74360;44.410;0.216;2024-02-23T10:35:25;3.47;;;0.70;;
76708;SDS011;74360;44.410;0.216;2024-02-23T10:40:58;4.10;;;0.80;;
76708;SDS011;74360;44.410;0.216;2024-02-23T10:46:33;5.60;;;0.80;;
76708;SDS011;74360;44.410;0.216;2024-02-23T10:52:06;8.13;;;1.10;;
76708;SDS011;74360;44.410;0.216;2024-02-23T10:57:37;3.83;;;1.10;;
76708;SDS011;74360;44.410;0.216;2024-02-23T11:03:08;5.90;;;0.93;;
76708;SDS011;74360;44.410;0.216;2024-02-23T11:08:41;7.47;;;1.40;;
76708;SDS011;74360;44.410;0.216;2024-02-23T11:14:14;5.63;;;1.60;;
76708;SDS011;74360;44.410;0.216;2024-02-23T11:19:49;4.00;;;0.83;;
76708;SDS011;74360;44.410;0.216;2024-02-23T11:25:21;3.60;;;0.80;;
76708;SDS011;74360;44.410;0.216;2024-02-23T11:30:53;7.43;;;1.10;;
76708;SDS011;74360;44.410;0.216;2024-02-23T11:36:27;6.67;;;1.20;;
76708;SDS011;74360;44.410;0.216;2024-02-23T11:41:58;8.50;;;2.67;;
76708;SDS011;74360;44.410;0.216;2024-02-23T11:53:04;4.47;;;0.90;;
76708;SDS011;74360;44.410;0.216;2024-02-23T11:58:35;5.33;;;0.80;;
76708;SDS011;74360;44.410;0.216;2024-02-23T12:04:07;4.70;;;1.00;;
76708;SDS011;74360;44.410;0.216;2024-02-23T12:09:41;2.93;;;0.70;;
76708;SDS011;74360;44.410;0.216;2024-02-23T12:20:47;1.30;;;0.40;;
76708;SDS011;74360;44.410;0.216;2024-02-23T12:26:21;4.17;;;0.60;;
76708;SDS011;74360;44.410;0.216;2024-02-23T12:37:25;4.07;;;0.60;;
76708;SDS011;74360;44.410;0.216;2024-02-23T12:48:30;5.07;;;1.03;;
76708;SDS011;74360;44.410;0.216;2024-02-23T12:54:03;2.27;;;0.50;;
76708;SDS011;74360;44.410;0.216;2024-02-23T12:59:34;3.97;;;0.93;;
76708;SDS011;74360;44.410;0.216;2024-02-23T13:05:08;4.23;;;0.73;;
76708;SDS011;74360;44.410;0.216;2024-02-23T13:10:41;5.00;;;0.83;;
76708;SDS011;74360;44.410;0.216;2024-02-23T13:16:15;4.20;;;0.90;;
76708;SDS011;74360;44.410;0.216;2024-02-23T13:21:46;6.73;;;1.10;;
76708;SDS011;74360;44.410;0.216;2024-02-23T13:32:52;4.27;;;1.00;;
76708;SDS011;74360;44.410;0.216;2024-02-23T13:38:24;5.90;;;0.97;;
76708;SDS011;74360;44.410;0.216;2024-02-23T13:43:56;7.70;;;1.10;;
76708;SDS011;74360;44.410;0.216;2024-02-23T13:49:28;4.63;;;0.90;;
76708;SDS011;74360;44.410;0.216;2024-02-23T13:55:01;4.63;;;1.40;;
76708;SDS011;74360;44.410;0.216;2024-02-23T14:00:33;4.07;;;1.33;;
76708;SDS011;74360;44.410;0.216;2024-02-23T14:06:07;5.77;;;1.10;;
76708;SDS011;74360;44.410;0.216;2024-02-23T14:11:41;3.47;;;1.33;;
76708;SDS011;74360;44.410;0.216;2024-02-23T14:17:12;2.03;;;0.80;;
76708;SDS011;74360;44.410;0.216;2024-02-23T14:22:46;2.77;;;0.80;;
76708;SDS011;74360;44.410;0.216;2024-02-23T14:28:19;2.73;;;1.03;;
76708;SDS011;74360;44.410;0.216;2024-02-23T14:33:51;2.00;;;0.70;;
76708;SDS011;74360;44.410;0.216;2024-02-23T14:39:24;3.07;;;0.90;;
76708;SDS011;74360;44.410;0.216;2024-02-23T14:44:57;2.97;;;1.13;;
76708;SDS011;74360;44.410;0.216;2024-02-23T14:50:31;4.23;;;1.27;;
76708;SDS011;74360;44.410;0.216;2024-02-23T14:56:04;5.53;;;1.80;;
76708;SDS011;74360;44.410;0.216;2024-02-23T15:01:34;3.00;;;0.70;;
76708;SDS011;74360;44.410;0.216;2024-02-23T15:07:07;4.07;;;1.20;;
76708;SDS011;74360;44.410;0.216;2024-02-23T15:12:39;5.00;;;1.13;;
76708;SDS011;74360;44.410;0.216;2024-02-23T15:18:12;6.87;;;1.93;;
76708;SDS011;74360;44.410;0.216;2024-02-23T15:23:45;4.70;;;1.10;;
76708;SDS011;74360;44.410;0.216;2024-02-23T15:29:18;2.50;;;1.23;;
76708;SDS011;74360;44.410;0.216;2024-02-23T15:34:50;3.97;;;1.23;;
76708;SDS011;74360;44.410;0.216;2024-02-23T15:40:23;3.23;;;1.20;;
76708;SDS011;74360;44.410;0.216;2024-02-23T15:45:56;4.27;;;1.63;;
76708;SDS011;74360;44.410;0.216;2024-02-23T15:51:33;6.70;;;4.93;;
76708;SDS011;74360;44.410;0.216;2024-02-23T15:57:01;4.97;;;1.53;;
76708;SDS011;74360;44.410;0.216;2024-02-23T16:02:35;3.27;;;1.10;;
76708;SDS011;74360;44.410;0.216;2024-02-23T16:08:06;2.37;;;0.67;;
76708;SDS011;74360;44.410;0.216;2024-02-23T16:13:39;2.13;;;0.80;;
76708;SDS011;74360;44.410;0.216;2024-02-23T16:19:12;4.00;;;1.57;;
76708;SDS011;74360;44.410;0.216;2024-02-23T16:24:46;5.37;;;1.00;;
76708;SDS011;74360;44.410;0.216;2024-02-23T16:30:19;4.50;;;1.13;;
76708;SDS011;74360;44.410;0.216;2024-02-23T16:35:51;1.90;;;0.80;;
76708;SDS011;74360;44.410;0.216;2024-02-23T16:41:23;4.07;;;1.00;;
76708;SDS011;74360;44.410;0.216;2024-02-23T16:46:56;5.17;;;1.00;;
76708;SDS011;74360;44.410;0.216;2024-02-23T16:52:28;6.37;;;1.10;;
76708;SDS011;74360;44.410;0.216;2024-02-23T16:58:01;3.30;;;1.10;;
76708;SDS011;74360;44.410;0.216;2024-02-23T17:03:33;9.53;;;1.53;;
76708;SDS011;74360;44.410;0.216;2024-02-23T17:09:10;6.67;;;2.10;;
76708;SDS011;74360;44.410;0.216;2024-02-23T17:20:12;10.67;;;2.37;;
76708;SDS011;74360;44.410;0.216;2024-02-23T17:25:45;4.80;;;1.57;;
76708;SDS011;74360;44.410;0.216;2024-02-23T17:31:16;7.33;;;2.23;;
76708;SDS011;74360;44.410;0.216;2024-02-23T17:36:48;5.10;;;1.53;;
76708;SDS011;74360;44.410;0.216;2024-02-23T17:42:22;5.00;;;1.00;;
76708;SDS011;74360;44.410;0.216;2024-02-23T17:47:55;3.33;;;1.20;;
76708;SDS011;74360;44.410;0.216;2024-02-23T17:53:27;4.20;;;1.00;;
76708;SDS011;74360;44.410;0.216;2024-02-23T17:59:01;3.70;;;1.07;;
76708;SDS011;74360;44.410;0.216;2024-02-23T18:10:07;3.20;;;1.00;;
76708;SDS011;74360;44.410;0.216;2024-02-23T18:15:39;2.43;;;1.23;;
76708;SDS011;74360;44.410;0.216;2024-02-23T18:21:14;5.43;;;1.20;;
76708;SDS011;74360;44.410;0.216;2024-02-23T18:26:44;7.67;;;1.43;;
76708;SDS011;74360;44.410;0.216;2024-02-23T18:32:16;9.73;;;1.63;;
76708;SDS011;74360;44.410;0.216;2024-02-23T18:37:48;5.20;;;1.20;;
76708;SDS011;74360;44.410;0.216;2024-02-23T18:43:20;7.87;;;1.60;;
76708;SDS011;74360;44.410;0.216;2024-02-23T18:48:56;7.93;;;1.40;;
76708;SDS011;74360;44.410;0.216;2024-02-23T18:54:27;2.57;;;0.97;;
76708;SDS011;74360;44.410;0.216;2024-02-23T19:00:00;9.87;;;1.80;;
76708;SDS011;74360;44.410;0.216;2024-02-23T19:05:32;8.20;;;1.40;;
76708;SDS011;74360;44.410;0.216;2024-02-23T19:11:04;4.60;;;1.10;;
76708;SDS011;74360;44.410;0.216;2024-02-23T19:16:38;7.53;;;1.77;;
76708;SDS011;74360;44.410;0.216;2024-02-23T19:22:08;2.67;;;1.17;;
76708;SDS011;74360;44.410;0.216;2024-02-23T19:38:50;3.23;;;0.80;;
76708;SDS011;74360;44.410;0.216;2024-02-23T19:44:18;3.07;;;0.80;;
76708;SDS011;74360;44.410;0.216;2024-02-23T19:49:51;4.77;;;1.33;;
76708;SDS011;74360;44.410;0.216;2024-02-23T19:55:24;5.53;;;1.20;;
76708;SDS011;74360;44.410;0.216;2024-02-23T20:00:57;2.10;;;0.97;;
76708;SDS011;74360;44.410;0.216;2024-02-23T20:06:29;3.07;;;1.10;;
76708;SDS011;74360;44.410;0.216;2024-02-23T20:12:04;5.27;;;1.40;;
76708;SDS011;74360;44.410;0.216;2024-02-23T20:17:37;3.17;;;1.00;;
76708;SDS011;74360;44.410;0.216;2024-02-23T20:23:09;2.77;;;1.03;;
76708;SDS011;74360;44.410;0.216;2024-02-23T20:28:41;5.73;;;1.20;;
76708;SDS011;74360;44.410;0.216;2024-02-23T20:34:16;2.90;;;0.83;;
76708;SDS011;74360;44.410;0.216;2024-02-23T20:39:45;1.53;;;0.73;;
76708;SDS011;74360;44.410;0.216;2024-02-23T20:45:18;4.10;;;0.97;;
76708;SDS011;74360;44.410;0.216;2024-02-23T20:50:51;3.10;;;0.90;;
76708;SDS011;74360;44.410;0.216;2024-02-23T20:56:23;2.33;;;0.90;;
76708;SDS011;74360;44.410;0.216;2024-02-23T21:01:56;2.20;;;0.90;;
76708;SDS011;74360;44.410;0.216;2024-02-23T21:07:29;4.73;;;1.43;;
76708;SDS011;74360;44.410;0.216;2024-02-23T21:18:36;4.50;;;1.37;;
76708;SDS011;74360;44.410;0.216;2024-02-23T21:24:08;3.77;;;1.07;;
76708;SDS011;74360;44.410;0.216;2024-02-23T21:29:40;2.97;;;1.00;;
76708;SDS011;74360;44.410;0.216;2024-02-23T21:35:14;5.13;;;1.30;;
76708;SDS011;74360;44.410;0.216;2024-02-23T21:40:47;4.63;;;1.20;;
76708;SDS011;74360;44.410;0.216;2024-02-23T21:46:19;4.27;;;1.27;;
76708;SDS011;74360;44.410;0.216;2024-02-23T21:51:51;5.57;;;0.90;;
76708;SDS011;74360;44.410;0.216;2024-02-23T21:57:25;3.23;;;1.00;;
76708;SDS011;74360;44.410;0.216;2024-02-23T22:02:57;2.20;;;0.77;;
76708;SDS011;74360;44.410;0.216;2024-02-23T22:08:29;5.77;;;1.10;;
76708;SDS011;74360;44.410;0.216;2024-02-23T22:14:01;3.90;;;1.10;;
76708;SDS011;74360;44.410;0.216;2024-02-23T22:19:33;5.57;;;1.33;;
76708;SDS011;74360;44.410;0.216;2024-02-23T22:25:07;3.70;;;1.20;;
76708;SDS011;74360;44.410;0.216;2024-02-23T22:30:39;5.23;;;1.23;;
76708;SDS011;74360;44.410;0.216;2024-02-23T22:36:11;4.00;;;1.07;;
76708;SDS011;74360;44.410;0.216;2024-02-23T22:41:42;3.20;;;0.93;;
76708;SDS011;74360;44.410;0.216;2024-02-23T22:47:16;4.00;;;1.13;;
76708;SDS011;74360;44.410;0.216;2024-02-23T22:52:49;4.53;;;0.90;;
76708;SDS011;74360;44.410;0.216;2024-02-23T22:58:21;2.80;;;1.00;;
76708;SDS011;74360;44.410;0.216;2024-02-23T23:03:54;1.90;;;0.73;;
76708;SDS011;74360;44.410;0.216;2024-02-23T23:09:26;2.90;;;1.00;;
76708;SDS011;74360;44.410;0.216;2024-02-23T23:14:58;3.83;;;1.00;;
76708;SDS011;74360;44.410;0.216;2024-02-23T23:20:30;3.93;;;1.00;;
76708;SDS011;74360;44.410;0.216;2024-02-23T23:26:03;2.87;;;0.87;;
76708;SDS011;74360;44.410;0.216;2024-02-23T23:31:36;2.50;;;0.80;;
76708;SDS011;74360;44.410;0.216;2024-02-23T23:37:09;1.73;;;0.67;;
76708;SDS011;74360;44.410;0.216;2024-02-23T23:42:42;2.07;;;0.83;;
76708;SDS011;74360;44.410;0.216;2024-02-23T23:48:16;2.10;;;0.70;;
76708;SDS011;74360;44.410;0.216;2024-02-23T23:53:53;2.57;;;0.60;;
76708;SDS011;74360;44.410;0.216;2024-02-23T23:59:21;1.80;;;0.60;;
